createdAt,value
2022-09-23T00:01:03.601Z,199.07
2022-09-23T00:03:32.995Z,164.50
2022-09-23T00:06:02.604Z,155.67
2022-09-23T00:08:31.320Z,216.50
2022-09-23T00:11:05.674Z,162.27
2022-09-23T00:13:33.910Z,172.87
2022-09-23T00:16:03.923Z,212.07
2022-09-23T00:18:31.916Z,154.70
2022-09-23T00:21:03.848Z,194.67
2022-09-23T00:23:31.937Z,264.97
2022-09-23T00:26:02.825Z,224.03
2022-09-23T00:28:31.489Z,230.40
2022-09-23T00:31:03.365Z,233.47
2022-09-23T00:33:31.389Z,162.87
2022-09-23T00:36:00.460Z,268.77
2022-09-23T00:38:29.141Z,231.10
2022-09-23T00:41:17.103Z,215.07
2022-09-23T00:43:47.606Z,260.00
2022-09-23T00:46:19.501Z,205.73
2022-09-23T00:48:49.495Z,279.40
2022-09-23T00:51:19.638Z,239.57
2022-09-23T00:53:48.665Z,204.10
2022-09-23T00:56:20.366Z,138.97
2022-09-23T00:58:48.883Z,131.07
2022-09-23T01:01:16.946Z,159.13
2022-09-23T01:03:46.863Z,126.17
2022-09-23T01:06:15.400Z,109.07
2022-09-23T01:08:44.236Z,92.30
2022-09-23T01:11:26.103Z,123.70
2022-09-23T01:13:59.282Z,143.53
2022-09-23T01:16:31.991Z,190.43
2022-09-23T01:19:08.470Z,202.23
2022-09-23T01:21:44.215Z,232.97
2022-09-23T01:24:39.707Z,203.20
2022-09-23T01:27:17.293Z,225.93
2022-09-23T01:30:18.984Z,239.17
2022-09-23T01:33:04.594Z,253.63
2022-09-23T01:35:47.771Z,273.13
2022-09-23T01:38:34.683Z,287.40
2022-09-23T01:41:06.143Z,232.27
2022-09-23T01:43:39.729Z,264.83
2022-09-23T01:46:11.332Z,256.50
2022-09-23T01:48:46.416Z,317.33
2022-09-23T01:51:18.213Z,369.67
2022-09-23T01:53:49.036Z,316.57
2022-09-23T01:56:21.030Z,297.60
2022-09-23T01:58:52.221Z,300.43
2022-09-23T02:01:23.054Z,453.17
2022-09-23T02:03:55.435Z,493.37
2022-09-23T02:06:26.604Z,443.80
2022-09-23T02:09:00.356Z,506.63
2022-09-23T02:11:28.724Z,403.93
2022-09-23T02:14:00.185Z,445.17
2022-09-23T02:16:31.631Z,481.43
2022-09-23T02:19:02.896Z,438.03
2022-09-23T02:21:35.029Z,525.53
2022-09-23T02:24:09.138Z,427.83
2022-09-23T02:26:41.519Z,415.50
2022-09-23T02:29:18.359Z,443.10
2022-09-23T02:31:50.527Z,454.27
2022-09-23T02:34:29.295Z,436.80
2022-09-23T02:37:06.959Z,499.33
2022-09-23T02:39:41.276Z,486.33
2022-09-23T02:42:13.890Z,514.23
2022-09-23T02:44:42.409Z,489.93
2022-09-23T02:47:10.637Z,443.33
2022-09-23T02:49:40.210Z,543.43
2022-09-23T02:52:08.409Z,546.10
2022-09-23T02:54:36.440Z,634.03
2022-09-23T02:57:06.623Z,600.50
2022-09-23T02:59:35.483Z,559.63
2022-09-23T03:02:36.978Z,498.20
2022-09-23T03:05:09.116Z,523.10
2022-09-23T03:07:46.360Z,428.87
2022-09-23T03:10:19.765Z,378.37
2022-09-23T03:12:54.034Z,485.70
2022-09-23T03:15:26.349Z,452.70
2022-09-23T03:17:58.975Z,464.97
2022-09-23T03:20:34.188Z,513.27
2022-09-23T03:23:04.856Z,493.70
2022-09-23T03:25:36.214Z,574.63
2022-09-23T03:28:05.203Z,511.30
2022-09-23T03:30:35.576Z,529.60
2022-09-23T03:33:05.050Z,537.53
2022-09-23T03:38:52.989Z,528.33
2022-09-23T03:41:24.632Z,508.03
2022-09-23T03:43:53.370Z,563.90
2022-09-23T03:46:21.456Z,630.20
2022-09-23T03:48:49.577Z,548.00
2022-09-23T03:51:23.888Z,583.37
2022-09-23T03:53:52.092Z,582.37
2022-09-23T03:56:20.136Z,658.43
2022-09-23T03:58:48.968Z,660.57
2022-09-23T04:01:17.114Z,639.97
2022-09-23T04:03:45.437Z,684.40
2022-09-23T04:06:13.999Z,739.20
2022-09-23T04:08:43.531Z,684.10
2022-09-23T04:11:11.847Z,594.37
2022-09-23T04:13:40.546Z,624.23
2022-09-23T04:16:08.690Z,633.13
2022-09-23T04:18:36.830Z,583.77
2022-09-23T04:21:05.217Z,664.33
2022-09-23T04:23:33.330Z,689.17
2022-09-23T04:26:02.984Z,691.17
2022-09-23T04:28:31.356Z,685.47
2022-09-23T04:30:59.527Z,721.10
2022-09-23T04:33:28.260Z,697.53
2022-09-23T04:35:57.080Z,685.90
2022-09-23T04:38:25.268Z,667.83
2022-09-23T04:40:53.477Z,718.23
2022-09-23T04:43:24.122Z,674.90
2022-09-23T04:45:59.955Z,681.90
2022-09-23T04:48:28.168Z,590.10
2022-09-23T04:50:56.466Z,531.33
2022-09-23T04:53:24.536Z,550.47
2022-09-23T04:55:52.847Z,503.13
2022-09-23T04:58:23.104Z,610.43
2022-09-23T05:00:51.272Z,533.80
2022-09-23T05:03:19.372Z,609.80
2022-09-23T05:05:47.740Z,571.00
2022-09-23T05:08:16.002Z,640.40
2022-09-23T05:10:44.262Z,674.10
2022-09-23T05:13:12.430Z,701.77
2022-09-23T05:15:41.803Z,671.90
2022-09-23T05:18:09.941Z,637.80
2022-09-23T05:20:38.064Z,646.13
2022-09-23T05:23:06.491Z,719.20
2022-09-23T05:25:38.227Z,691.17
2022-09-23T05:28:06.909Z,821.83
2022-09-23T05:30:35.025Z,719.97
2022-09-23T05:33:04.662Z,775.30
2022-09-23T05:35:32.783Z,798.70
2022-09-23T05:38:01.057Z,785.90
2022-09-23T05:40:29.391Z,781.80
2022-09-23T05:42:57.560Z,808.13
2022-09-23T05:45:26.964Z,776.30
2022-09-23T05:47:55.150Z,715.53
2022-09-23T05:50:24.743Z,735.60
2022-09-23T05:52:53.004Z,701.10
2022-09-23T05:55:21.238Z,735.27
2022-09-23T05:57:49.276Z,873.63
2022-09-23T06:00:17.743Z,810.43
2022-09-23T06:02:45.999Z,842.50
2022-09-23T06:05:14.757Z,842.20
2022-09-23T06:07:44.829Z,812.10
2022-09-23T06:10:13.073Z,822.20
2022-09-23T06:12:42.465Z,844.97
2022-09-23T06:15:12.130Z,871.03
2022-09-23T06:17:40.326Z,845.23
2022-09-23T06:20:09.390Z,850.77
2022-09-23T06:22:39.741Z,852.40
2022-09-23T06:25:10.880Z,847.80
2022-09-23T06:27:39.141Z,889.67
2022-09-23T06:30:08.537Z,873.80
2022-09-23T06:32:36.689Z,855.87
2022-09-23T06:35:05.091Z,955.07
2022-09-23T06:37:33.881Z,876.13
2022-09-23T06:40:02.621Z,885.67
2022-09-23T06:42:32.135Z,948.20
2022-09-23T06:45:01.857Z,887.30
2022-09-23T06:47:30.174Z,832.30
2022-09-23T06:49:58.265Z,922.60
2022-09-23T06:52:26.725Z,902.93
2022-09-23T06:54:54.785Z,883.57
2022-09-23T06:57:22.926Z,839.50
2022-09-23T06:59:52.360Z,932.47
2022-09-23T07:02:20.598Z,871.77
2022-09-23T07:04:49.060Z,876.40
2022-09-23T07:07:18.692Z,1259.73
2022-09-23T07:09:47.679Z,1016.80
2022-09-23T07:12:16.347Z,945.60
2022-09-23T07:14:46.107Z,950.37
2022-09-23T07:17:15.682Z,972.87
2022-09-23T07:19:44.107Z,973.80
2022-09-23T07:22:12.296Z,946.17
2022-09-23T07:24:40.558Z,986.53
2022-09-23T07:27:08.695Z,929.37
2022-09-23T07:29:46.528Z,962.97
2022-09-23T07:32:18.124Z,989.45
2022-09-23T07:34:47.197Z,967.77
2022-09-23T07:37:15.334Z,916.23
2022-09-23T07:39:44.108Z,871.47
2022-09-23T07:42:13.346Z,916.43
2022-09-23T07:44:42.033Z,882.73
2022-09-23T07:47:10.166Z,894.13
2022-09-23T07:49:39.688Z,860.93
2022-09-23T07:52:07.791Z,895.30
2022-09-23T07:54:35.930Z,889.90
2022-09-23T07:57:04.185Z,947.83
2022-09-23T07:59:32.220Z,916.93
2022-09-23T08:02:00.565Z,837.83
2022-09-23T08:04:30.200Z,876.63
2022-09-23T08:07:01.154Z,852.37
2022-09-23T08:09:31.803Z,874.23
2022-09-23T08:12:00.120Z,829.63
2022-09-23T08:14:28.599Z,831.77
2022-09-23T08:16:57.667Z,805.20
2022-09-23T08:19:25.713Z,777.23
2022-09-23T08:21:54.480Z,796.57
2022-09-23T08:24:24.588Z,734.67
2022-09-23T08:26:54.065Z,784.77
2022-09-23T08:29:23.423Z,742.57
2022-09-23T08:31:51.499Z,733.30
2022-09-23T08:34:20.913Z,676.20
2022-09-23T08:36:49.017Z,682.00
2022-09-23T08:39:18.601Z,644.90
2022-09-23T08:41:58.241Z,701.93
2022-09-23T08:44:31.139Z,588.77
2022-09-23T08:47:06.824Z,500.20
2022-09-23T08:49:39.421Z,545.07
2022-09-23T08:52:14.586Z,479.30
2022-09-23T08:54:42.616Z,415.97
2022-09-23T08:57:20.736Z,400.00
2022-09-23T08:59:49.312Z,463.83
2022-09-23T09:02:20.828Z,369.27
2022-09-23T09:04:51.947Z,256.47
2022-09-23T09:07:36.182Z,237.53
2022-09-23T09:10:11.500Z,205.13
2022-09-23T09:12:43.639Z,159.87
2022-09-23T09:15:14.273Z,170.93
2022-09-23T09:17:48.461Z,172.37
2022-09-23T09:20:23.451Z,121.10
2022-09-23T09:22:55.045Z,103.63
2022-09-23T09:25:28.765Z,106.67
2022-09-23T09:28:01.654Z,102.50
2022-09-23T09:30:29.757Z,97.23
2022-09-23T09:33:01.132Z,105.07
2022-09-23T09:35:36.808Z,89.70
2022-09-23T09:38:05.755Z,83.03
2022-09-23T09:40:34.586Z,76.70
2022-09-23T09:43:05.239Z,75.83
2022-09-23T09:45:57.470Z,78.77
2022-09-23T09:48:32.799Z,74.10
2022-09-23T09:51:19.072Z,79.73
2022-09-23T09:53:47.114Z,71.47
2022-09-23T09:56:16.480Z,74.63
2022-09-23T09:58:48.432Z,71.07
2022-09-23T10:01:23.316Z,69.53
2022-09-23T10:03:56.933Z,69.83
2022-09-23T10:06:28.539Z,70.10
2022-09-23T10:09:11.399Z,68.10
2022-09-23T10:11:39.815Z,67.60
2022-09-23T10:14:13.465Z,68.63
2022-09-23T10:16:42.581Z,69.77
2022-09-23T10:19:17.994Z,68.87
2022-09-23T10:21:52.597Z,69.50
2022-09-23T10:24:23.998Z,67.93
2022-09-23T10:26:58.021Z,69.73
2022-09-23T10:29:31.932Z,69.67
2022-09-23T10:32:25.706Z,70.10
2022-09-23T10:34:57.037Z,66.63
2022-09-23T10:37:33.580Z,70.10
2022-09-23T10:40:20.178Z,71.77
2022-09-23T10:43:12.746Z,66.73
2022-09-23T10:46:05.712Z,67.00
2022-09-23T10:48:42.719Z,68.10
2022-09-23T10:51:15.734Z,67.33
2022-09-23T10:53:52.206Z,68.90
2022-09-23T10:56:26.658Z,67.50
2022-09-23T10:59:08.820Z,71.40
2022-09-23T11:01:44.629Z,66.30
2022-09-23T11:04:27.274Z,68.70
2022-09-23T11:07:14.150Z,66.20
2022-09-23T11:09:55.026Z,67.27
2022-09-23T11:12:32.422Z,67.57
2022-09-23T11:15:16.524Z,67.67
2022-09-23T11:18:23.365Z,66.90
2022-09-23T11:20:58.453Z,71.30
2022-09-23T11:23:37.115Z,66.77
2022-09-23T11:26:12.405Z,67.17
2022-09-23T11:29:00.721Z,65.90
2022-09-23T11:31:38.791Z,67.97
2022-09-23T11:34:31.024Z,67.97
2022-09-23T11:37:02.322Z,68.63
2022-09-23T11:39:33.885Z,68.67
2022-09-23T11:42:03.126Z,66.90
2022-09-23T11:44:34.203Z,66.70
2022-09-23T11:47:08.114Z,67.27
2022-09-23T11:49:40.777Z,67.50
2022-09-23T11:52:12.791Z,66.10
2022-09-23T11:54:44.981Z,66.00
2022-09-23T11:57:18.921Z,68.60
2022-09-23T12:02:30.296Z,66.60
2022-09-23T12:05:02.896Z,66.87
2022-09-23T12:07:40.656Z,66.73
2022-09-23T12:10:10.035Z,67.27
2022-09-23T12:12:42.680Z,67.10
2022-09-23T12:15:18.125Z,67.47
2022-09-23T12:17:56.927Z,69.27
2022-09-23T12:20:49.931Z,67.70
2022-09-23T12:23:32.626Z,66.80
2022-09-23T12:26:02.202Z,70.10
2022-09-23T12:28:32.590Z,67.33
2022-09-23T12:31:03.483Z,69.07
2022-09-23T12:33:33.292Z,69.60
2022-09-23T12:36:06.633Z,67.37
2022-09-23T12:38:36.653Z,68.00
2022-09-23T12:41:20.517Z,67.93
2022-09-23T12:43:53.870Z,69.40
2022-09-23T12:46:26.197Z,68.57
2022-09-23T12:49:02.863Z,70.20
2022-09-23T12:51:34.115Z,67.57
2022-09-23T12:54:24.120Z,67.40
2022-09-23T12:57:00.395Z,75.43
2022-09-23T12:59:30.848Z,69.40
2022-09-23T13:02:12.164Z,68.03
2022-09-23T13:05:14.820Z,67.50
2022-09-23T13:07:47.090Z,69.90
2022-09-23T13:10:19.350Z,68.80
2022-09-23T13:12:47.864Z,70.27
2022-09-23T13:15:28.168Z,70.37
2022-09-23T13:18:24.745Z,70.40
2022-09-23T13:20:57.003Z,68.10
2022-09-23T13:23:27.540Z,70.20
2022-09-23T13:25:57.735Z,68.20
2022-09-23T13:28:32.398Z,69.00
2022-09-23T13:31:05.170Z,68.10
2022-09-23T13:33:39.768Z,70.03
2022-09-23T13:36:13.464Z,68.50
2022-09-23T13:38:42.980Z,69.17
2022-09-23T13:41:14.960Z,67.90
2022-09-23T13:43:44.963Z,68.20
2022-09-23T13:46:14.617Z,70.07
2022-09-23T13:48:45.353Z,69.60
2022-09-23T13:51:24.577Z,69.13
2022-09-23T13:53:55.628Z,68.07
2022-09-23T13:56:24.970Z,68.90
2022-09-23T13:58:53.381Z,70.27
2022-09-23T14:01:32.336Z,69.47
2022-09-23T14:04:00.843Z,67.80
2022-09-23T14:06:30.995Z,68.40
2022-09-23T14:09:02.167Z,70.07
2022-09-23T14:11:31.403Z,68.87
2022-09-23T14:14:07.635Z,69.40
2022-09-23T14:16:37.950Z,69.97
2022-09-23T14:19:06.630Z,69.63
2022-09-23T14:21:36.179Z,69.77
2022-09-23T14:24:23.731Z,69.60
2022-09-23T14:26:54.382Z,69.60
2022-09-23T14:29:25.675Z,69.43
2022-09-23T14:31:57.720Z,68.57
2022-09-23T14:34:47.035Z,69.67
2022-09-23T14:37:41.107Z,69.10
2022-09-23T14:40:14.995Z,70.43
2022-09-23T14:42:44.912Z,70.33
2022-09-23T14:45:15.843Z,68.90
2022-09-23T14:47:46.326Z,69.27
2022-09-23T14:50:39.504Z,69.93
2022-09-23T14:53:33.839Z,69.77
2022-09-23T14:56:17.108Z,69.87
2022-09-23T14:58:52.353Z,68.30
2022-09-23T15:01:33.976Z,69.20
2022-09-23T15:04:11.756Z,76.82
2022-09-23T15:06:41.701Z,70.40
2022-09-23T15:09:13.145Z,69.20
2022-09-23T15:11:41.175Z,68.90
2022-09-23T15:14:36.150Z,70.03
2022-09-23T15:16:59.472Z,69.37
2022-09-23T15:19:28.309Z,71.67
2022-09-23T15:21:56.318Z,69.00
2022-09-23T15:24:40.168Z,68.60
2022-09-23T15:27:29.666Z,69.37
2022-09-23T15:30:03.927Z,70.30
2022-09-23T15:32:31.936Z,69.90
2022-09-23T15:34:59.944Z,72.63
2022-09-23T15:37:28.746Z,69.87
2022-09-23T15:39:59.298Z,68.50
2022-09-23T15:42:27.523Z,69.87
2022-09-23T15:44:55.483Z,69.10
2022-09-23T15:47:23.488Z,69.50
2022-09-23T15:49:51.634Z,69.83
2022-09-23T15:52:22.823Z,69.20
2022-09-23T15:54:50.849Z,68.70
2022-09-23T15:57:21.546Z,70.20
2022-09-23T15:59:49.720Z,68.87
2022-09-23T16:02:21.339Z,69.70
2022-09-23T16:04:50.992Z,70.00
2022-09-23T16:07:19.864Z,69.30
2022-09-23T16:09:47.951Z,68.97
2022-09-23T16:12:16.001Z,70.63
2022-09-23T16:14:45.364Z,69.30
2022-09-23T16:17:14.947Z,69.90
2022-09-23T16:19:43.538Z,71.53
2022-09-23T16:22:11.895Z,75.33
2022-09-23T16:24:41.187Z,73.77
2022-09-23T16:27:09.393Z,70.53
2022-09-23T16:29:37.415Z,75.40
2022-09-23T16:32:06.842Z,71.30
2022-09-23T16:34:34.938Z,72.43
2022-09-23T16:37:03.768Z,70.90
2022-09-23T16:39:31.779Z,77.90
2022-09-23T16:41:59.765Z,71.40
2022-09-23T16:44:27.751Z,71.50
2022-09-23T16:46:57.702Z,69.83
2022-09-23T16:49:27.414Z,68.70
2022-09-23T16:51:55.385Z,68.83
2022-09-23T16:54:23.921Z,69.67
2022-09-23T16:56:52.205Z,67.27
2022-09-23T16:59:20.163Z,67.80
2022-09-23T17:02:05.864Z,70.90
2022-09-23T17:04:35.246Z,68.90
2022-09-23T17:07:03.212Z,68.97
2022-09-23T17:09:31.257Z,68.27
2022-09-23T17:12:04.658Z,68.60
2022-09-23T17:14:32.733Z,69.57
2022-09-23T17:17:01.310Z,67.80
2022-09-23T17:19:29.371Z,68.50
2022-09-23T17:21:58.729Z,71.10
2022-09-23T17:24:26.766Z,68.80
2022-09-23T17:26:54.793Z,69.00
2022-09-23T17:29:22.783Z,69.23
2022-09-23T17:31:50.826Z,69.60
2022-09-23T17:34:19.618Z,75.70
2022-09-23T17:36:47.661Z,70.37
2022-09-23T17:39:18.339Z,71.87
2022-09-23T17:41:46.446Z,70.97
2022-09-23T17:44:16.143Z,69.70
2022-09-23T17:46:44.154Z,71.03
2022-09-23T17:49:12.177Z,69.87
2022-09-23T17:51:40.554Z,72.40
2022-09-23T17:54:08.878Z,75.87
2022-09-23T17:56:38.294Z,79.80
2022-09-23T17:59:06.342Z,77.90
2022-09-23T18:01:35.573Z,88.00
2022-09-23T18:04:05.683Z,80.27
2022-09-23T18:06:36.632Z,81.47
2022-09-23T18:09:06.234Z,76.40
2022-09-23T18:11:36.088Z,74.10
2022-09-23T18:14:07.430Z,73.10
2022-09-23T18:16:37.058Z,75.17
2022-09-23T18:19:05.608Z,70.50
2022-09-23T18:21:36.371Z,68.50
2022-09-23T18:26:54.573Z,66.97
2022-09-23T18:29:23.960Z,70.67
2022-09-23T18:31:52.222Z,72.07
2022-09-23T18:34:20.442Z,68.07
2022-09-23T18:36:48.576Z,70.13
2022-09-23T18:39:16.728Z,70.80
2022-09-23T18:41:44.754Z,68.93
2022-09-23T18:44:12.839Z,68.70
2022-09-23T18:46:42.786Z,68.70
2022-09-23T18:49:28.210Z,70.83
2022-09-23T18:51:57.311Z,71.00
2022-09-23T18:54:26.128Z,68.07
2022-09-23T18:56:54.334Z,69.17
2022-09-23T18:59:25.203Z,70.37
2022-09-23T19:01:55.559Z,70.77
2022-09-23T19:04:24.982Z,70.77
2022-09-23T19:06:53.695Z,72.07
2022-09-23T19:09:21.820Z,70.80
2022-09-23T19:11:52.165Z,68.70
2022-09-23T19:14:20.870Z,68.37
2022-09-23T19:16:50.678Z,69.50
2022-09-23T19:19:20.090Z,68.47
2022-09-23T19:21:48.153Z,68.70
2022-09-23T19:24:20.046Z,68.10
2022-09-23T19:26:48.587Z,76.10
2022-09-23T19:29:19.568Z,83.27
2022-09-23T19:31:47.905Z,79.60
2022-09-23T19:34:17.781Z,85.57
2022-09-23T19:36:48.280Z,70.97
2022-09-23T19:39:18.606Z,70.43
2022-09-23T19:41:47.156Z,69.33
2022-09-23T19:44:16.576Z,68.53
2022-09-23T19:46:45.823Z,69.80
2022-09-23T19:49:14.487Z,68.80
2022-09-23T19:51:44.115Z,69.60
2022-09-23T19:54:19.074Z,67.13
2022-09-23T19:56:47.681Z,70.80
2022-09-23T19:59:18.771Z,69.10
2022-09-23T20:01:47.755Z,70.63
2022-09-23T20:04:16.650Z,73.03
2022-09-23T20:06:46.127Z,72.50
2022-09-23T20:09:15.628Z,68.80
2022-09-23T20:11:44.274Z,69.90
2022-09-23T20:14:13.049Z,69.63
2022-09-23T20:16:41.474Z,69.63
2022-09-23T20:19:11.163Z,70.27
2022-09-23T20:21:39.218Z,69.50
2022-09-23T20:24:09.567Z,73.10
2022-09-23T20:26:56.883Z,72.03
2022-09-23T20:29:24.871Z,70.40
2022-09-23T20:31:53.259Z,74.87
2022-09-23T20:34:21.638Z,70.70
2022-09-23T20:36:49.713Z,68.40
2022-09-23T20:39:17.800Z,72.03
2022-09-23T20:41:48.179Z,70.20
2022-09-23T20:44:17.187Z,69.23
2022-09-23T20:46:48.469Z,69.90
2022-09-23T20:49:17.866Z,67.60
2022-09-23T20:51:46.072Z,71.03
2022-09-23T20:54:14.113Z,69.70
2022-09-23T20:56:42.206Z,71.77
2022-09-23T20:59:14.824Z,68.90
2022-09-23T21:01:42.884Z,72.50
2022-09-23T21:04:11.399Z,69.60
2022-09-23T21:06:39.732Z,70.93
2022-09-23T21:09:08.800Z,69.47
2022-09-23T21:11:36.868Z,69.77
2022-09-23T21:14:04.925Z,71.50
2022-09-23T21:16:34.394Z,71.97
2022-09-23T21:19:02.962Z,72.77
2022-09-23T21:21:31.136Z,74.93
2022-09-23T21:24:17.175Z,75.07
2022-09-23T21:26:47.359Z,73.77
2022-09-23T21:29:15.416Z,71.80
2022-09-23T21:31:45.343Z,76.87
2022-09-23T21:34:13.956Z,80.20
2022-09-23T21:36:44.142Z,76.67
2022-09-23T21:39:12.889Z,81.10
2022-09-23T21:41:41.096Z,78.47
2022-09-23T21:44:09.400Z,80.63
2022-09-23T21:46:37.789Z,81.03
2022-09-23T21:49:09.053Z,82.93
2022-09-23T21:51:40.478Z,83.87
2022-09-23T21:54:12.766Z,79.23
2022-09-23T21:56:40.859Z,74.63
2022-09-23T21:59:08.994Z,80.43
2022-09-23T22:01:38.331Z,79.80
2022-09-23T22:04:13.142Z,80.40
2022-09-23T22:06:41.632Z,80.57
2022-09-23T22:09:11.787Z,93.27
2022-09-23T22:11:58.498Z,90.13
2022-09-23T22:14:27.255Z,86.00
2022-09-23T22:16:57.506Z,93.33
2022-09-23T22:19:28.511Z,94.70
2022-09-23T22:21:56.633Z,97.17
2022-09-23T22:24:24.621Z,91.17
2022-09-23T22:26:52.716Z,103.60
2022-09-23T22:29:38.414Z,108.63
2022-09-23T22:32:27.611Z,96.03
2022-09-23T22:34:57.550Z,92.63
2022-09-23T22:37:27.485Z,90.10
2022-09-23T22:39:56.121Z,85.50
2022-09-23T22:42:24.250Z,112.83
2022-09-23T22:44:52.436Z,98.60
2022-09-23T22:47:21.111Z,99.63
2022-09-23T22:49:54.577Z,112.73
2022-09-23T22:52:25.215Z,94.80
2022-09-23T22:54:53.564Z,100.80
2022-09-23T22:57:21.585Z,104.57
2022-09-23T22:59:49.591Z,117.93
2022-09-23T23:02:18.371Z,100.93
2022-09-23T23:04:47.549Z,112.63
2022-09-23T23:07:16.504Z,124.97
2022-09-23T23:09:45.895Z,117.00
2022-09-23T23:12:13.913Z,120.20
2022-09-23T23:14:42.405Z,123.83
2022-09-23T23:17:10.507Z,131.90
2022-09-23T23:19:38.641Z,121.80
2022-09-23T23:22:06.693Z,104.90
2022-09-23T23:24:34.715Z,108.33
2022-09-23T23:27:04.104Z,98.53
2022-09-23T23:29:32.221Z,116.70
2022-09-23T23:32:00.240Z,118.63
2022-09-23T23:34:28.341Z,131.70
2022-09-23T23:36:56.399Z,111.23
2022-09-23T23:39:25.666Z,115.00
2022-09-23T23:41:54.883Z,119.87
2022-09-23T23:44:25.096Z,108.70
2022-09-23T23:46:53.719Z,137.17
2022-09-23T23:49:22.014Z,116.50
2022-09-23T23:51:50.247Z,122.40
2022-09-23T23:54:18.355Z,123.63
2022-09-23T23:56:46.464Z,117.37
2022-09-23T23:59:14.516Z,139.73
